createdAt,value
2018-08-13T00:00:08.069Z,1002.77
2018-08-13T00:02:01.070Z,1002.74
2018-08-13T00:03:01.131Z,1002.72
2018-08-13T00:04:54.121Z,1002.72
2018-08-13T00:05:54.187Z,1002.69
2018-08-13T00:07:47.185Z,1002.71
2018-08-13T00:08:47.243Z,1002.68
2018-08-13T00:10:40.241Z,1002.66
2018-08-13T00:11:40.297Z,1002.66
2018-08-13T00:13:33.297Z,1002.67
2018-08-13T00:14:33.357Z,1002.67
2018-08-13T00:16:26.874Z,1002.65
2018-08-13T00:17:26.938Z,1002.68
2018-08-13T00:19:19.918Z,1002.68
2018-08-13T00:20:19.983Z,1002.63
2018-08-13T00:22:12.983Z,1002.67
2018-08-13T00:23:13.041Z,1002.62
2018-08-13T00:25:06.030Z,1002.61
2018-08-13T00:26:06.096Z,1002.64
2018-08-13T00:27:59.095Z,1002.59
2018-08-13T00:28:59.151Z,1002.60
2018-08-13T00:30:52.153Z,1002.57
2018-08-13T00:31:52.211Z,1002.55
2018-08-13T00:33:45.203Z,1002.55
2018-08-13T00:34:45.269Z,1002.54
2018-08-13T00:36:38.267Z,1002.47
2018-08-13T00:37:38.335Z,1002.45
2018-08-13T00:39:31.320Z,1002.42
2018-08-13T00:40:31.385Z,1002.37
2018-08-13T00:42:24.384Z,1002.36
2018-08-13T00:43:24.444Z,1002.32
2018-08-13T00:45:17.453Z,1002.26
2018-08-13T00:46:17.515Z,1002.23
2018-08-13T00:48:10.513Z,1002.28
2018-08-13T00:49:10.571Z,1002.25
2018-08-13T00:51:03.571Z,1002.24
2018-08-13T00:52:03.629Z,1002.28
2018-08-13T00:53:56.628Z,1002.28
2018-08-13T00:54:56.685Z,1002.24
2018-08-13T00:56:49.684Z,1002.28
2018-08-13T00:57:49.745Z,1002.24
2018-08-13T00:59:42.743Z,1002.20
2018-08-13T01:00:42.802Z,1002.20
2018-08-13T01:02:35.802Z,1002.15
2018-08-13T01:03:35.858Z,1002.13
2018-08-13T01:05:28.852Z,1002.09
2018-08-13T01:06:28.918Z,1002.08
2018-08-13T01:08:21.921Z,1002.06
2018-08-13T01:09:21.967Z,1002.06
2018-08-13T01:11:14.969Z,1002.06
2018-08-13T01:12:15.032Z,1002.05
2018-08-13T01:14:08.034Z,1002.05
2018-08-13T01:15:08.093Z,1002.10
2018-08-13T01:17:02.594Z,1002.08
2018-08-13T01:18:02.661Z,1002.04
2018-08-13T01:19:55.660Z,1002.04
2018-08-13T01:20:55.725Z,1002.00
2018-08-13T01:22:48.720Z,1002.07
2018-08-13T01:23:48.779Z,1002.03
2018-08-13T01:25:41.771Z,1002.01
2018-08-13T01:26:41.836Z,1002.01
2018-08-13T01:28:34.833Z,1001.98
2018-08-13T01:29:34.892Z,1002.00
2018-08-13T01:31:27.907Z,1002.00
2018-08-13T01:32:27.947Z,1001.99
2018-08-13T01:34:20.948Z,1001.93
2018-08-13T01:35:21.004Z,1001.84
2018-08-13T01:37:14.015Z,1001.83
2018-08-13T01:38:14.075Z,1001.82
2018-08-13T01:40:07.078Z,1001.81
2018-08-13T01:41:07.140Z,1001.81
2018-08-13T01:43:00.141Z,1001.74
2018-08-13T01:44:00.197Z,1001.73
2018-08-13T01:45:53.191Z,1001.71
2018-08-13T01:46:53.254Z,1001.67
2018-08-13T01:48:46.250Z,1001.67
2018-08-13T01:49:46.311Z,1001.62
2018-08-13T01:51:39.302Z,1001.57
2018-08-13T01:52:39.366Z,1001.55
2018-08-13T01:54:32.366Z,1001.49
2018-08-13T01:55:32.424Z,1001.46
2018-08-13T01:57:25.409Z,1001.42
2018-08-13T01:58:25.479Z,1001.42
2018-08-13T02:00:18.487Z,1001.42
2018-08-13T02:01:18.596Z,1001.39
2018-08-13T02:03:11.560Z,1001.41
2018-08-13T02:04:11.618Z,1001.38
2018-08-13T02:06:04.611Z,1001.46
2018-08-13T02:07:04.674Z,1001.46
2018-08-13T02:08:57.675Z,1001.48
2018-08-13T02:09:57.734Z,1001.47
2018-08-13T02:11:50.731Z,1001.50
2018-08-13T02:12:50.788Z,1001.47
2018-08-13T02:14:43.792Z,1001.40
2018-08-13T02:15:43.849Z,1001.45
2018-08-13T02:17:36.864Z,1001.47
2018-08-13T02:18:36.906Z,1001.44
2018-08-13T02:20:29.912Z,1001.44
2018-08-13T02:21:29.969Z,1001.44
2018-08-13T02:23:22.963Z,1001.41
2018-08-13T02:24:23.026Z,1001.43
2018-08-13T02:26:16.031Z,1001.45
2018-08-13T02:27:16.082Z,1001.45
2018-08-13T02:29:09.140Z,1001.43
2018-08-13T02:30:09.152Z,1001.42
2018-08-13T02:32:02.147Z,1001.41
2018-08-13T02:33:02.207Z,1001.42
2018-08-13T02:34:55.207Z,1001.55
2018-08-13T02:35:55.261Z,1001.59
2018-08-13T02:37:48.274Z,1001.63
2018-08-13T02:38:48.321Z,1001.59
2018-08-13T02:40:41.318Z,1001.59
2018-08-13T02:41:41.375Z,1001.52
2018-08-13T02:43:34.381Z,1001.53
2018-08-13T02:44:34.452Z,1001.51
2018-08-13T02:46:27.448Z,1001.52
2018-08-13T02:47:27.509Z,1001.50
2018-08-13T02:49:20.505Z,1001.54
2018-08-13T02:50:20.565Z,1001.53
2018-08-13T02:52:13.564Z,1001.56
2018-08-13T02:53:13.619Z,1001.55
2018-08-13T02:55:06.620Z,1001.54
2018-08-13T02:56:06.675Z,1001.52
2018-08-13T02:57:59.705Z,1001.39
2018-08-13T02:58:59.731Z,1001.36
2018-08-13T03:00:52.742Z,1001.32
2018-08-13T03:01:52.796Z,1001.30
2018-08-13T03:03:45.796Z,1001.23
2018-08-13T03:04:45.877Z,1001.23
2018-08-13T03:06:38.862Z,1001.27
2018-08-13T03:07:38.932Z,1001.24
2018-08-13T03:09:31.929Z,1001.19
2018-08-13T03:10:31.997Z,1001.17
2018-08-13T03:12:24.997Z,1001.14
2018-08-13T03:13:25.056Z,1001.14
2018-08-13T03:15:18.049Z,1001.08
2018-08-13T03:16:18.114Z,1001.03
2018-08-13T03:18:11.116Z,1001.00
2018-08-13T03:19:11.176Z,1000.99
2018-08-13T03:21:04.182Z,1000.95
2018-08-13T03:22:04.233Z,1000.90
2018-08-13T03:23:57.241Z,1000.88
2018-08-13T03:24:57.299Z,1000.86
2018-08-13T03:26:50.317Z,1000.90
2018-08-13T03:27:50.364Z,1000.89
2018-08-13T03:29:43.361Z,1000.87
2018-08-13T03:30:43.422Z,1000.89
2018-08-13T03:32:36.423Z,1000.85
2018-08-13T03:33:36.627Z,1000.84
2018-08-13T03:35:29.477Z,1000.78
2018-08-13T03:36:29.544Z,1000.78
2018-08-13T03:38:22.542Z,1000.76
2018-08-13T03:39:22.601Z,1000.69
2018-08-13T03:41:15.599Z,1000.70
2018-08-13T03:42:15.656Z,1000.67
2018-08-13T03:44:08.651Z,1000.64
2018-08-13T03:45:08.713Z,1000.62
2018-08-13T03:47:01.720Z,1000.58
2018-08-13T03:48:01.776Z,1000.57
2018-08-13T03:49:54.774Z,1000.60
2018-08-13T03:50:54.831Z,1000.62
2018-08-13T03:52:47.831Z,1000.60
2018-08-13T03:53:47.935Z,1000.64
2018-08-13T03:55:40.889Z,1000.67
2018-08-13T03:56:40.949Z,1000.65
2018-08-13T03:58:33.949Z,1000.64
2018-08-13T03:59:34.008Z,1000.61
2018-08-13T04:01:27.000Z,1000.48
2018-08-13T04:02:27.063Z,1000.44
2018-08-13T04:04:20.063Z,1000.42
2018-08-13T04:05:20.120Z,1000.44
2018-08-13T04:07:13.119Z,1000.46
2018-08-13T04:08:13.175Z,1000.51
2018-08-13T04:10:06.166Z,1000.50
2018-08-13T04:11:06.230Z,1000.51
2018-08-13T04:12:59.296Z,1000.58
2018-08-13T04:13:59.312Z,1000.56
2018-08-13T04:15:52.282Z,1000.55
2018-08-13T04:16:52.348Z,1000.54
2018-08-13T04:18:45.351Z,1000.52
2018-08-13T04:19:45.407Z,1000.51
2018-08-13T04:21:38.415Z,1000.48
2018-08-13T04:22:38.468Z,1000.46
2018-08-13T04:24:31.476Z,1000.47
2018-08-13T04:25:31.590Z,1000.48
2018-08-13T04:27:24.534Z,1000.47
2018-08-13T04:28:24.579Z,1000.51
2018-08-13T04:30:17.573Z,1000.47
2018-08-13T04:31:17.634Z,1000.46
2018-08-13T04:33:10.633Z,1000.42
2018-08-13T04:34:10.695Z,1000.43
2018-08-13T04:36:03.683Z,1000.44
2018-08-13T04:37:03.751Z,1000.43
2018-08-13T04:38:56.748Z,1000.42
2018-08-13T04:39:56.852Z,1000.38
2018-08-13T04:41:49.805Z,1000.42
2018-08-13T04:42:49.938Z,1000.42
2018-08-13T04:44:42.862Z,1000.35
2018-08-13T04:45:42.922Z,1000.33
2018-08-13T04:47:35.913Z,1000.29
2018-08-13T04:48:35.977Z,1000.27
2018-08-13T04:50:28.981Z,1000.23
2018-08-13T04:51:29.034Z,1000.29
2018-08-13T04:53:22.037Z,1000.30
2018-08-13T04:54:22.094Z,1000.35
2018-08-13T04:56:15.092Z,1000.47
2018-08-13T04:57:15.152Z,1000.57
2018-08-13T04:59:08.149Z,1000.66
2018-08-13T05:00:08.208Z,1000.68
2018-08-13T05:02:01.202Z,1000.67
2018-08-13T05:03:01.264Z,1000.73
2018-08-13T05:04:54.269Z,1000.77
2018-08-13T05:05:54.321Z,1000.80
2018-08-13T05:07:47.313Z,1000.78
2018-08-13T05:08:47.399Z,1000.80
2018-08-13T05:10:40.380Z,1000.84
2018-08-13T05:11:40.440Z,1000.85
2018-08-13T05:13:33.430Z,1000.88
2018-08-13T05:14:33.494Z,1000.89
2018-08-13T05:16:28.003Z,1000.91
2018-08-13T05:17:28.182Z,1000.88
2018-08-13T05:19:21.061Z,1000.95
2018-08-13T05:20:21.116Z,1000.95
2018-08-13T05:22:14.115Z,1000.92
2018-08-13T05:23:14.174Z,1000.95
2018-08-13T05:25:07.174Z,1000.97
2018-08-13T05:26:07.237Z,1000.96
2018-08-13T05:28:00.226Z,1000.96
2018-08-13T05:29:00.291Z,1000.98
2018-08-13T05:30:53.303Z,1001.00
2018-08-13T05:31:53.357Z,1001.00
2018-08-13T05:33:46.358Z,1001.00
2018-08-13T05:34:46.420Z,1001.04
2018-08-13T05:36:39.427Z,1001.03
2018-08-13T05:37:39.483Z,1001.00
2018-08-13T05:39:32.486Z,1001.04
2018-08-13T05:40:32.537Z,1001.01
2018-08-13T05:42:25.542Z,1000.96
2018-08-13T05:43:25.592Z,1000.98
2018-08-13T05:45:18.591Z,1000.99
2018-08-13T05:46:18.654Z,1001.04
2018-08-13T05:48:11.666Z,1000.96
2018-08-13T05:49:11.732Z,1000.98
2018-08-13T05:51:04.731Z,1000.98
2018-08-13T05:52:04.788Z,1000.98
2018-08-13T05:53:57.783Z,1000.94
2018-08-13T05:54:57.847Z,1000.91
2018-08-13T05:56:50.848Z,1000.92
2018-08-13T05:57:50.900Z,1000.90
2018-08-13T05:59:44.414Z,1000.91
2018-08-13T06:00:44.466Z,1000.91
2018-08-13T06:02:37.464Z,1000.89
2018-08-13T06:03:37.521Z,1000.89
2018-08-13T06:05:30.521Z,1000.93
2018-08-13T06:06:30.601Z,1000.92
2018-08-13T06:08:23.576Z,1000.92
2018-08-13T06:09:23.635Z,1000.94
2018-08-13T06:11:16.650Z,1000.91
2018-08-13T06:12:16.691Z,1000.95
2018-08-13T06:14:09.685Z,1000.94
2018-08-13T06:15:09.747Z,1000.93
2018-08-13T06:17:02.747Z,1000.98
2018-08-13T06:18:02.825Z,1000.97
2018-08-13T06:19:55.790Z,1000.96
2018-08-13T06:20:55.861Z,1000.93
2018-08-13T06:22:48.863Z,1000.91
2018-08-13T06:23:48.918Z,1000.88
2018-08-13T06:25:41.913Z,1000.92
2018-08-13T06:26:41.976Z,1000.94
2018-08-13T06:28:34.975Z,1000.98
2018-08-13T06:29:35.030Z,1000.97
2018-08-13T06:31:28.031Z,1001.00
2018-08-13T06:32:28.093Z,1001.02
2018-08-13T06:34:21.082Z,1001.07
2018-08-13T06:35:21.149Z,1001.02
2018-08-13T06:37:14.199Z,1001.07
2018-08-13T06:38:14.208Z,1001.09
2018-08-13T06:40:07.201Z,1001.06
2018-08-13T06:41:07.258Z,1001.12
2018-08-13T06:43:00.265Z,1001.15
2018-08-13T06:44:00.322Z,1001.13
2018-08-13T06:45:53.323Z,1001.12
2018-08-13T06:46:53.387Z,1001.06
2018-08-13T06:48:46.385Z,1001.12
2018-08-13T06:49:46.443Z,1001.17
2018-08-13T06:51:39.444Z,1001.24
2018-08-13T06:52:39.500Z,1001.25
2018-08-13T06:54:32.491Z,1001.23
2018-08-13T06:55:32.554Z,1001.26
2018-08-13T06:57:25.555Z,1001.37
2018-08-13T06:58:25.613Z,1001.34
2018-08-13T07:00:18.608Z,1001.22
2018-08-13T07:01:18.673Z,1001.21
2018-08-13T07:03:11.670Z,1001.30
2018-08-13T07:04:11.727Z,1001.27
2018-08-13T07:06:04.790Z,1001.27
2018-08-13T07:07:04.782Z,1001.29
2018-08-13T07:08:57.782Z,1001.22
2018-08-13T07:09:57.839Z,1001.17
2018-08-13T07:11:50.840Z,1001.17
2018-08-13T07:12:50.897Z,1001.18
2018-08-13T07:14:43.888Z,1001.17
2018-08-13T07:15:43.989Z,1001.15
2018-08-13T07:17:36.953Z,1001.09
2018-08-13T07:18:37.008Z,1001.10
2018-08-13T07:20:30.001Z,1001.03
2018-08-13T07:21:30.063Z,1000.96
2018-08-13T07:23:23.063Z,1000.88
2018-08-13T07:24:23.127Z,1000.80
2018-08-13T07:26:16.121Z,1000.70
2018-08-13T07:27:16.189Z,1000.62
2018-08-13T07:29:09.188Z,1000.47
2018-08-13T07:30:09.245Z,1000.36
2018-08-13T07:32:02.246Z,1000.26
2018-08-13T07:33:02.301Z,1000.26
2018-08-13T07:34:55.294Z,1000.35
2018-08-13T07:35:55.365Z,1000.41
2018-08-13T07:37:48.378Z,1000.39
2018-08-13T07:38:48.420Z,1000.42
2018-08-13T07:40:41.410Z,1000.51
2018-08-13T07:41:41.472Z,1000.55
2018-08-13T07:43:34.473Z,1000.61
2018-08-13T07:44:34.531Z,1000.61
2018-08-13T07:46:27.569Z,1000.56
2018-08-13T07:47:27.586Z,1000.49
2018-08-13T07:49:20.592Z,1000.46
2018-08-13T07:50:20.649Z,1000.59
2018-08-13T07:52:13.669Z,1000.74
2018-08-13T07:53:13.716Z,1000.77
2018-08-13T07:55:06.714Z,1000.86
2018-08-13T07:56:06.766Z,1000.92
2018-08-13T07:57:59.773Z,1000.98
2018-08-13T07:58:59.850Z,1001.05
2018-08-13T08:00:52.861Z,1001.05
2018-08-13T08:01:52.910Z,1001.07
2018-08-13T08:03:45.915Z,1001.01
2018-08-13T08:04:45.976Z,1001.08
2018-08-13T08:06:38.974Z,1001.14
2018-08-13T08:07:39.041Z,1001.15
2018-08-13T08:09:32.046Z,1001.08
2018-08-13T08:10:32.105Z,1001.10
2018-08-13T08:12:25.111Z,1001.09
2018-08-13T08:13:25.196Z,1001.15
2018-08-13T08:15:18.195Z,1001.15
2018-08-13T08:16:18.234Z,1001.13
2018-08-13T08:18:11.241Z,1001.14
2018-08-13T08:19:11.301Z,1001.23
2018-08-13T08:21:04.301Z,1001.21
2018-08-13T08:22:04.371Z,1001.18
2018-08-13T08:23:57.372Z,1001.12
2018-08-13T08:24:57.435Z,1001.16
2018-08-13T08:26:50.454Z,1001.21
2018-08-13T08:27:50.529Z,1001.18
2018-08-13T08:29:43.515Z,1001.20
2018-08-13T08:30:43.573Z,1001.19
2018-08-13T08:32:36.580Z,1001.24
2018-08-13T08:33:36.635Z,1001.22
2018-08-13T08:35:29.641Z,1001.28
2018-08-13T08:36:29.724Z,1001.30
2018-08-13T08:38:22.725Z,1001.36
2018-08-13T08:39:22.784Z,1001.37
2018-08-13T08:41:15.783Z,1001.42
2018-08-13T08:42:15.848Z,1001.42
2018-08-13T08:44:08.853Z,1001.43
2018-08-13T08:45:08.913Z,1001.44
2018-08-13T08:47:01.923Z,1001.41
2018-08-13T08:48:01.977Z,1001.37
2018-08-13T08:49:54.978Z,1001.35
2018-08-13T08:50:55.037Z,1001.35
2018-08-13T08:52:48.040Z,1001.34
2018-08-13T08:53:48.100Z,1001.33
2018-08-13T08:55:41.096Z,1001.37
2018-08-13T08:56:41.164Z,1001.37
2018-08-13T08:58:34.164Z,1001.41
2018-08-13T08:59:34.222Z,1001.41
2018-08-13T09:01:27.217Z,1001.49
2018-08-13T09:02:27.315Z,1001.46
2018-08-13T09:04:20.286Z,1001.56
2018-08-13T09:05:20.343Z,1001.53
2018-08-13T09:07:13.339Z,1001.54
2018-08-13T09:08:13.427Z,1001.59
2018-08-13T09:10:06.413Z,1001.56
2018-08-13T09:11:06.473Z,1001.55
2018-08-13T09:12:59.474Z,1001.53
2018-08-13T09:13:59.534Z,1001.50
2018-08-13T09:15:52.534Z,1001.51
2018-08-13T09:16:52.600Z,1001.50
2018-08-13T09:18:45.613Z,1001.53
2018-08-13T09:19:45.665Z,1001.50
2018-08-13T09:21:38.657Z,1001.47
2018-08-13T09:22:38.723Z,1001.46
2018-08-13T09:24:31.733Z,1001.54
2018-08-13T09:25:31.820Z,1001.57
2018-08-13T09:27:24.783Z,1001.55
2018-08-13T09:28:24.890Z,1001.53
2018-08-13T09:30:17.877Z,1001.55
2018-08-13T09:31:17.944Z,1001.47
2018-08-13T09:33:10.938Z,1001.44
2018-08-13T09:34:10.990Z,1001.46
2018-08-13T09:36:04.001Z,1001.49
2018-08-13T09:37:04.048Z,1001.45
2018-08-13T09:38:57.063Z,1001.45
2018-08-13T09:39:57.124Z,1001.43
2018-08-13T09:41:50.121Z,1001.39
2018-08-13T09:42:50.185Z,1001.36
2018-08-13T09:44:43.200Z,1001.39
2018-08-13T09:45:43.246Z,1001.36
2018-08-13T09:47:36.242Z,1001.37
2018-08-13T09:48:36.311Z,1001.35
2018-08-13T09:50:29.335Z,1001.34
2018-08-13T09:51:29.369Z,1001.40
2018-08-13T09:53:22.368Z,1001.53
2018-08-13T09:54:22.434Z,1001.46
2018-08-13T09:56:15.453Z,1001.46
2018-08-13T09:57:15.512Z,1001.45
2018-08-13T09:59:08.516Z,1001.41
2018-08-13T10:00:08.584Z,1001.41
2018-08-13T10:02:01.577Z,1001.41
2018-08-13T10:03:01.642Z,1001.39
2018-08-13T10:04:54.650Z,1001.34
2018-08-13T10:05:54.710Z,1001.30
2018-08-13T10:07:47.713Z,1001.35
2018-08-13T10:08:47.781Z,1001.35
2018-08-13T10:10:40.817Z,1001.34
2018-08-13T10:11:40.846Z,1001.35
2018-08-13T10:13:33.847Z,1001.32
2018-08-13T10:14:33.912Z,1001.27
2018-08-13T10:16:26.922Z,1001.24
2018-08-13T10:17:26.988Z,1001.21
2018-08-13T10:19:19.985Z,1001.12
2018-08-13T10:20:20.041Z,1001.20
2018-08-13T10:22:13.042Z,1001.13
2018-08-13T10:23:13.109Z,1001.07
2018-08-13T10:25:06.112Z,1001.10
2018-08-13T10:26:06.172Z,1001.04
2018-08-13T10:27:59.173Z,1001.04
2018-08-13T10:28:59.239Z,1001.04
2018-08-13T10:30:52.243Z,1001.09
2018-08-13T10:31:52.311Z,1001.06
2018-08-13T10:33:45.309Z,1001.03
2018-08-13T10:34:45.379Z,1001.02
2018-08-13T10:36:38.382Z,1000.97
2018-08-13T10:37:38.450Z,1001.00
2018-08-13T10:39:31.454Z,1000.90
2018-08-13T10:40:31.514Z,1000.96
2018-08-13T10:42:24.517Z,1000.95
2018-08-13T10:43:24.641Z,1000.95
2018-08-13T10:45:17.596Z,1000.91
2018-08-13T10:46:17.656Z,1000.94
2018-08-13T10:48:10.660Z,1000.87
2018-08-13T10:49:10.729Z,1000.89
2018-08-13T10:51:03.736Z,1000.89
2018-08-13T10:52:03.795Z,1000.89
2018-08-13T10:53:56.820Z,1001.01
2018-08-13T10:54:56.866Z,1000.93
2018-08-13T10:56:49.878Z,1000.81
2018-08-13T10:57:49.940Z,1000.85
2018-08-13T10:59:43.456Z,1000.89
2018-08-13T11:00:43.524Z,1000.88
2018-08-13T11:02:36.534Z,1000.84
2018-08-13T11:03:36.605Z,1000.83
2018-08-13T11:05:29.613Z,1000.79
2018-08-13T11:06:29.673Z,1000.84
2018-08-13T11:08:22.672Z,1000.82
2018-08-13T11:09:22.740Z,1000.81
2018-08-13T11:11:15.742Z,1000.78
2018-08-13T11:12:15.803Z,1000.61
2018-08-13T11:14:08.814Z,1000.73
2018-08-13T11:15:08.875Z,1000.74
2018-08-13T11:17:01.899Z,1000.73
2018-08-13T11:18:01.946Z,1000.81
2018-08-13T11:19:54.953Z,1000.71
2018-08-13T11:20:55.016Z,1000.67
2018-08-13T11:22:48.066Z,1000.60
2018-08-13T11:23:48.094Z,1000.63
2018-08-13T11:25:41.101Z,1000.57
2018-08-13T11:26:41.163Z,1000.57
2018-08-13T11:28:34.160Z,1000.56
2018-08-13T11:29:34.227Z,1000.58
2018-08-13T11:31:27.234Z,1000.58
2018-08-13T11:32:27.311Z,1000.59
2018-08-13T11:34:20.295Z,1000.65
2018-08-13T11:35:20.370Z,1000.64
2018-08-13T11:37:13.363Z,1000.63
2018-08-13T11:38:13.424Z,1000.60
2018-08-13T11:40:06.482Z,1000.63
2018-08-13T11:41:06.497Z,1000.70
2018-08-13T11:42:59.499Z,1000.71
2018-08-13T11:43:59.561Z,1000.56
2018-08-13T11:45:52.590Z,1000.54
2018-08-13T11:46:52.623Z,1000.60
2018-08-13T11:48:45.630Z,1000.64
2018-08-13T11:49:45.701Z,1000.55
2018-08-13T11:51:38.709Z,1000.48
2018-08-13T11:52:38.767Z,1000.44
2018-08-13T11:54:31.764Z,1000.42
2018-08-13T11:55:31.833Z,1000.46
2018-08-13T11:57:24.838Z,1000.47
2018-08-13T11:58:24.905Z,1000.45
2018-08-13T12:00:19.435Z,1000.51
2018-08-13T12:01:19.474Z,1000.45
2018-08-13T12:03:12.475Z,1000.43
2018-08-13T12:04:12.561Z,1000.46
2018-08-13T12:06:05.551Z,1000.47
2018-08-13T12:07:05.606Z,1000.50
2018-08-13T12:08:58.608Z,1000.43
2018-08-13T12:09:58.675Z,1000.42
2018-08-13T12:11:51.679Z,1000.45
2018-08-13T12:12:51.744Z,1000.45
2018-08-13T12:14:44.767Z,1000.45
2018-08-13T12:15:44.807Z,1000.37
2018-08-13T12:17:37.812Z,1000.43
2018-08-13T12:18:37.872Z,1000.36
2018-08-13T12:20:30.869Z,1000.26
2018-08-13T12:21:30.942Z,1000.31
2018-08-13T12:23:23.958Z,1000.32
2018-08-13T12:24:24.018Z,1000.32
2018-08-13T12:26:17.060Z,1000.25
2018-08-13T12:27:17.090Z,1000.19
2018-08-13T12:29:10.090Z,1000.16
2018-08-13T12:30:10.162Z,1000.13
2018-08-13T12:32:03.156Z,1000.12
2018-08-13T12:33:03.224Z,1000.10
2018-08-13T12:34:56.235Z,1000.09
2018-08-13T12:35:56.295Z,1000.15
2018-08-13T12:37:49.303Z,1000.21
2018-08-13T12:38:49.366Z,1000.19
2018-08-13T12:40:42.372Z,1000.12
2018-08-13T12:41:42.437Z,1000.19
2018-08-13T12:43:35.450Z,1000.16
2018-08-13T12:44:35.495Z,1000.13
2018-08-13T12:46:28.515Z,1000.11
2018-08-13T12:47:28.575Z,1000.07
2018-08-13T12:49:21.575Z,1000.09
2018-08-13T12:50:21.647Z,1000.04
2018-08-13T12:52:14.650Z,999.99
2018-08-13T12:53:14.711Z,999.98
2018-08-13T12:55:07.710Z,999.97
2018-08-13T12:56:07.776Z,999.94
2018-08-13T12:58:00.792Z,999.92
2018-08-13T12:59:00.848Z,999.88
2018-08-13T13:00:53.852Z,999.80
2018-08-13T13:01:53.921Z,999.88
2018-08-13T13:03:46.925Z,999.87
2018-08-13T13:04:46.986Z,999.86
2018-08-13T13:06:39.990Z,999.80
2018-08-13T13:07:40.051Z,999.77
2018-08-13T13:09:33.051Z,999.80
2018-08-13T13:10:33.119Z,999.83
2018-08-13T13:12:26.133Z,999.86
2018-08-13T13:13:26.193Z,999.85
2018-08-13T13:15:19.199Z,999.79
2018-08-13T13:16:19.270Z,999.81
2018-08-13T13:18:12.271Z,999.78
2018-08-13T13:19:12.328Z,999.74
2018-08-13T13:21:05.347Z,999.78
2018-08-13T13:22:05.402Z,999.82
2018-08-13T13:23:58.394Z,999.74
2018-08-13T13:24:58.454Z,999.76
2018-08-13T13:26:51.468Z,999.74
2018-08-13T13:27:51.531Z,999.75
2018-08-13T13:29:44.527Z,999.75
2018-08-13T13:30:44.597Z,999.75
2018-08-13T13:32:37.598Z,999.70
2018-08-13T13:33:37.657Z,999.60
2018-08-13T13:35:30.659Z,999.50
2018-08-13T13:36:30.723Z,999.55
2018-08-13T13:38:23.749Z,999.53
2018-08-13T13:39:23.810Z,999.57
2018-08-13T13:41:16.812Z,999.68
2018-08-13T13:42:16.879Z,999.69
2018-08-13T13:44:09.886Z,999.71
2018-08-13T13:45:09.946Z,999.71
2018-08-13T13:47:02.952Z,999.79
2018-08-13T13:48:03.010Z,999.86
2018-08-13T13:49:56.007Z,999.86
2018-08-13T13:50:56.074Z,999.86
2018-08-13T13:52:49.075Z,999.95
2018-08-13T13:53:49.133Z,1000.02
2018-08-13T13:55:42.134Z,1000.08
2018-08-13T13:56:42.200Z,1000.02
2018-08-13T13:58:35.240Z,1000.08
2018-08-13T13:59:35.272Z,1000.11
2018-08-13T14:01:28.267Z,1000.28
2018-08-13T14:02:28.340Z,1000.55
2018-08-13T14:04:21.342Z,1000.99
2018-08-13T14:05:21.404Z,1000.92
2018-08-13T14:07:14.403Z,1000.69
2018-08-13T14:08:14.463Z,1000.65
2018-08-13T14:10:07.464Z,1000.58
2018-08-13T14:11:07.524Z,1000.60
2018-08-13T14:13:00.531Z,1000.70
2018-08-13T14:14:00.585Z,1000.67
2018-08-13T14:15:53.585Z,1000.66
2018-08-13T14:16:53.649Z,1000.67
2018-08-13T14:18:46.651Z,1000.58
2018-08-13T14:19:46.711Z,1000.57
2018-08-13T14:21:39.705Z,1000.69
2018-08-13T14:22:39.769Z,1000.73
2018-08-13T14:24:32.768Z,1000.76
2018-08-13T14:25:32.831Z,1000.77
2018-08-13T14:27:25.829Z,1000.58
2018-08-13T14:28:25.911Z,1000.57
2018-08-13T14:30:18.905Z,1000.56
2018-08-13T14:31:18.969Z,1000.58
2018-08-13T14:33:11.971Z,1000.51
2018-08-13T14:34:12.072Z,1000.51
2018-08-13T14:36:05.021Z,1000.47
2018-08-13T14:37:05.085Z,1000.53
2018-08-13T14:38:58.081Z,1000.47
2018-08-13T14:39:58.247Z,1000.45
2018-08-13T14:41:51.138Z,1000.43
2018-08-13T14:42:51.206Z,1000.41
2018-08-13T14:44:44.203Z,1000.43
2018-08-13T14:45:44.261Z,1000.44
2018-08-13T14:47:37.268Z,1000.40
2018-08-13T14:48:37.326Z,1000.44
2018-08-13T14:50:30.315Z,1000.40
2018-08-13T14:51:30.385Z,1000.41
2018-08-13T14:53:23.386Z,1000.39
2018-08-13T14:54:23.436Z,1000.35
2018-08-13T14:56:16.454Z,1000.40
2018-08-13T14:57:16.523Z,1000.33
2018-08-13T14:59:09.532Z,1000.27
2018-08-13T15:00:09.587Z,1000.25
2018-08-13T15:02:03.589Z,1000.26
2018-08-13T15:03:03.658Z,1000.25
2018-08-13T15:04:56.663Z,1000.28
2018-08-13T15:05:56.719Z,1000.25
2018-08-13T15:07:49.717Z,1000.26
2018-08-13T15:08:49.777Z,1000.28
2018-08-13T15:10:42.771Z,1000.29
2018-08-13T15:11:42.838Z,1000.29
2018-08-13T15:13:35.841Z,1000.26
2018-08-13T15:14:35.890Z,1000.30
2018-08-13T15:16:28.908Z,1000.36
2018-08-13T15:17:28.977Z,1000.39
2018-08-13T15:19:21.977Z,1000.42
2018-08-13T15:20:22.036Z,1000.39
2018-08-13T15:22:15.081Z,1000.39
2018-08-13T15:23:15.116Z,1000.41
2018-08-13T15:25:08.097Z,1000.42
2018-08-13T15:26:08.156Z,1000.45
2018-08-13T15:28:01.216Z,1000.48
2018-08-13T15:29:01.237Z,1000.43
2018-08-13T15:30:54.220Z,1000.48
2018-08-13T15:31:54.287Z,1000.49
2018-08-13T15:33:47.288Z,1000.45
2018-08-13T15:34:47.348Z,1000.48
2018-08-13T15:36:40.342Z,1000.55
2018-08-13T15:37:40.407Z,1000.54
2018-08-13T15:39:33.409Z,1000.61
2018-08-13T15:40:33.476Z,1000.61
2018-08-13T15:42:26.459Z,1000.58
2018-08-13T15:43:26.525Z,1000.56
2018-08-13T15:45:19.533Z,1000.55
2018-08-13T15:46:19.585Z,1000.56
2018-08-13T15:48:12.584Z,1000.58
2018-08-13T15:49:12.643Z,1000.59
2018-08-13T15:51:05.657Z,1000.64
2018-08-13T15:52:05.702Z,1000.66
2018-08-13T15:53:58.704Z,1000.58
2018-08-13T15:54:58.763Z,1000.58
2018-08-13T15:56:51.764Z,1000.62
2018-08-13T15:57:51.831Z,1000.60
2018-08-13T15:59:44.830Z,1000.62
2018-08-13T16:00:44.887Z,1000.63
2018-08-13T16:02:37.896Z,1000.65
2018-08-13T16:03:37.960Z,1000.62
2018-08-13T16:05:30.973Z,1000.70
2018-08-13T16:06:31.021Z,1000.67
2018-08-13T16:08:24.026Z,1000.71
2018-08-13T16:09:24.089Z,1000.73
2018-08-13T16:11:17.082Z,1000.77
2018-08-13T16:12:17.149Z,1000.77
2018-08-13T16:14:10.155Z,1000.78
2018-08-13T16:15:10.220Z,1000.81
2018-08-13T16:17:03.224Z,1000.88
2018-08-13T16:18:03.276Z,1000.84
2018-08-13T16:19:56.278Z,1000.87
2018-08-13T16:20:56.335Z,1000.85
2018-08-13T16:22:49.364Z,1000.89
2018-08-13T16:23:49.429Z,1000.86
2018-08-13T16:25:42.433Z,1000.91
2018-08-13T16:26:42.559Z,1000.86
2018-08-13T16:28:35.486Z,1000.95
2018-08-13T16:29:35.551Z,1000.93
2018-08-13T16:31:28.552Z,1000.99
2018-08-13T16:32:28.614Z,1000.91
2018-08-13T16:34:21.614Z,1000.92
2018-08-13T16:35:21.672Z,1000.92
2018-08-13T16:37:14.674Z,1000.91
2018-08-13T16:38:14.733Z,1000.90
2018-08-13T16:40:07.736Z,1000.98
2018-08-13T16:41:07.794Z,1000.93
2018-08-13T16:43:00.791Z,1000.96
2018-08-13T16:44:00.854Z,1000.98
2018-08-13T16:45:53.852Z,1000.93
2018-08-13T16:46:53.914Z,1000.84
2018-08-13T16:48:46.914Z,1000.85
2018-08-13T16:49:46.973Z,1000.82
2018-08-13T16:51:39.964Z,1000.78
2018-08-13T16:52:40.032Z,1000.77
2018-08-13T16:54:33.032Z,1000.76
2018-08-13T16:55:33.115Z,1000.75
2018-08-13T16:57:26.090Z,1000.71
2018-08-13T16:58:26.148Z,1000.69
2018-08-13T17:00:19.150Z,1000.65
2018-08-13T17:01:19.211Z,1000.64
2018-08-13T17:03:12.204Z,1000.64
2018-08-13T17:04:12.270Z,1000.63
2018-08-13T17:06:05.273Z,1000.57
2018-08-13T17:07:05.332Z,1000.54
2018-08-13T17:08:58.356Z,1000.59
2018-08-13T17:09:58.398Z,1000.64
2018-08-13T17:11:51.401Z,1000.71
2018-08-13T17:12:51.486Z,1000.73
2018-08-13T17:14:44.500Z,1000.85
2018-08-13T17:15:44.533Z,1000.84
2018-08-13T17:17:37.534Z,1000.80
2018-08-13T17:18:37.595Z,1000.81
2018-08-13T17:20:30.596Z,1000.76
2018-08-13T17:21:30.655Z,1000.74
2018-08-13T17:23:23.657Z,1000.78
2018-08-13T17:24:23.723Z,1000.81
2018-08-13T17:26:16.723Z,1000.70
2018-08-13T17:27:16.782Z,1000.75
2018-08-13T17:29:09.796Z,1000.69